Time;durP1;ratioP1;P1;durP2;ratioP2;P2;SDS_P1;SDS_P2;PMS_P1;PMS_P2;Temp;Humidity;BMP_temperature;BMP_pressure;BME280_temperature;BME280_humidity;BME280_pressure;Samples;Min_cycle;Max_cycle;Signal;HPM_P1;HPM_P2
2022/09/20 00:00:04;;;;;;;7.25;3.70;;;14.20;99.90;;;;;;5052330;28;20021;-50
2022/09/20 00:02:30;;;;;;;7.90;3.85;;;14.20;99.90;;;;;;5052383;28;20111;-46
2022/09/20 00:04:55;;;;;;;7.32;3.65;;;14.20;99.90;;;;;;5051965;28;20447;-49
2022/09/20 00:07:21;;;;;;;5.88;3.90;;;14.20;99.90;;;;;;5052119;28;20032;-45
2022/09/20 00:09:47;;;;;;;8.68;4.30;;;14.20;99.90;;;;;;5051855;28;20391;-45
2022/09/20 00:12:12;;;;;;;7.68;3.90;;;14.20;99.90;;;;;;5052205;28;20082;-45
2022/09/20 00:14:38;;;;;;;7.03;3.78;;;14.10;99.90;;;;;;5049266;28;20025;-44
2022/09/20 00:17:04;;;;;;;6.88;3.90;;;14.20;99.90;;;;;;5046450;28;20013;-45
2022/09/20 00:19:29;;;;;;;7.93;4.40;;;14.10;99.90;;;;;;5052031;28;20033;-50
2022/09/20 00:21:55;;;;;;;6.47;3.90;;;14.10;99.90;;;;;;5051716;28;20476;-47
2022/09/20 00:24:21;;;;;;;8.15;3.80;;;14.10;99.90;;;;;;5051637;28;20454;-45
2022/09/20 00:26:46;;;;;;;6.25;3.28;;;14.10;99.90;;;;;;5051855;28;20052;-45
2022/09/20 00:29:12;;;;;;;6.15;3.53;;;14.10;99.90;;;;;;5051431;28;20377;-48
2022/09/20 00:31:41;;;;;;;5.97;3.42;;;14.10;99.90;;;;;;5051581;28;20464;-45
2022/09/20 00:36:52;;;;;;;6.05;3.67;;;14.10;99.90;;;;;;5051798;28;20116;-45
2022/09/20 00:39:18;;;;;;;6.97;3.55;;;14.10;99.90;;;;;;5051261;28;20053;-44
2022/09/20 00:41:44;;;;;;;5.60;3.42;;;14.10;99.90;;;;;;5051719;28;20737;-49
2022/09/20 00:44:39;;;;;;;7.45;3.33;;;14.10;99.90;;;;;;5051314;28;20488;-45
2022/09/20 00:47:10;;;;;;;5.60;3.30;;;14.10;99.90;;;;;;5043745;28;20149;-45
2022/09/20 00:49:37;;;;;;;5.65;3.17;;;14.00;99.90;;;;;;5051103;28;20041;-50
2022/09/20 00:52:03;;;;;;;6.95;3.63;;;14.10;99.90;;;;;;5051323;28;20103;-45
2022/09/20 00:54:29;;;;;;;6.00;3.50;;;14.10;99.90;;;;;;5051170;28;20107;-50
2022/09/20 00:56:55;;;;;;;6.30;3.67;;;14.00;99.90;;;;;;5051366;28;20025;-46
2022/09/20 00:59:31;;;;;;;5.78;3.83;;;14.10;99.90;;;;;;5051106;28;20025;-47
2022/09/20 01:02:08;;;;;;;6.43;3.30;;;14.10;99.90;;;;;;5050589;28;20488;-46
2022/09/20 01:04:38;;;;;;;6.55;3.42;;;14.00;99.90;;;;;;5050741;28;20399;-46
2022/09/20 01:07:06;;;;;;;4.65;2.85;;;14.00;99.90;;;;;;5050989;28;20031;-50
2022/09/20 01:09:31;;;;;;;6.32;3.38;;;14.00;99.90;;;;;;5051076;28;20041;-44
2022/09/20 01:12:02;;;;;;;5.90;3.15;;;14.00;99.90;;;;;;5051047;28;20023;-44
2022/09/20 01:14:28;;;;;;;5.38;3.22;;;14.00;99.90;;;;;;5050749;28;20071;-44
2022/09/20 01:16:56;;;;;;;6.10;3.40;;;14.00;99.90;;;;;;5049533;28;20056;-47
2022/09/20 01:19:52;;;;;;;5.28;3.10;;;13.90;99.90;;;;;;5049560;28;20499;-44
2022/09/20 01:22:35;;;;;;;5.38;3.20;;;13.90;99.90;;;;;;5050812;28;20033;-48
2022/09/20 01:25:15;;;;;;;5.03;3.15;;;13.90;99.90;;;;;;5050761;28;20029;-45
2022/09/20 01:27:49;;;;;;;6.90;3.15;;;13.80;99.90;;;;;;5051072;28;20063;-44
2022/09/20 01:30:24;;;;;;;5.95;3.38;;;13.80;99.90;;;;;;5050721;28;20083;-44
2022/09/20 01:32:59;;;;;;;5.65;3.30;;;13.80;99.90;;;;;;5050779;28;20092;-44
2022/09/20 01:35:27;;;;;;;6.15;3.17;;;13.70;99.90;;;;;;5050742;28;20029;-44
2022/09/20 01:38:08;;;;;;;7.07;2.95;;;13.70;99.90;;;;;;5050763;28;20056;-44
2022/09/20 01:40:51;;;;;;;5.70;2.95;;;13.70;99.90;;;;;;5050591;28;20032;-50
2022/09/20 01:43:35;;;;;;;6.55;3.13;;;13.70;99.90;;;;;;5049358;28;20107;-45
2022/09/20 01:46:23;;;;;;;4.65;2.97;;;13.70;99.90;;;;;;5050136;28;20025;-46
2022/09/20 01:48:53;;;;;;;4.95;3.00;;;13.60;99.90;;;;;;5050460;28;20048;-48
2022/09/20 01:52:02;;;;;;;5.97;2.97;;;13.60;99.90;;;;;;5050510;28;20108;-48
2022/09/20 01:54:56;;;;;;;7.15;2.90;;;13.50;99.90;;;;;;5050334;28;20033;-45
2022/09/20 01:57:43;;;;;;;6.88;3.83;;;13.50;99.90;;;;;;5050545;28;20471;-45
2022/09/20 02:00:34;;;;;;;4.88;2.95;;;13.50;99.90;;;;;;5050395;28;20111;-45
2022/09/20 02:03:12;;;;;;;7.55;3.33;;;13.40;99.90;;;;;;5050350;28;20483;-49
2022/09/20 02:05:38;;;;;;;5.70;2.92;;;13.40;99.90;;;;;;5049019;28;20026;-50
2022/09/20 02:08:28;;;;;;;5.28;2.97;;;13.30;99.90;;;;;;5048903;28;20021;-46
2022/09/20 02:11:11;;;;;;;5.38;3.17;;;13.20;99.90;;;;;;5050360;28;20037;-47
2022/09/20 02:13:39;;;;;;;8.50;3.55;;;13.20;99.90;;;;;;5049116;28;20136;-54
2022/09/20 02:16:38;;;;;;;6.05;3.25;;;13.10;99.90;;;;;;5054020;28;20051;-52
2022/09/20 02:19:15;;;;;;;5.50;3.25;;;13.00;99.90;;;;;;5053887;28;20032;-45
2022/09/20 02:22:02;;;;;;;5.78;3.25;;;13.00;99.90;;;;;;5053944;28;20033;-49
2022/09/20 02:24:31;;;;;;;5.22;2.90;;;13.00;99.90;;;;;;5053941;28;20052;-48
2022/09/20 02:27:16;;;;;;;5.03;3.03;;;13.00;99.90;;;;;;5054027;28;20082;-45
2022/09/20 02:29:48;;;;;;;5.50;3.40;;;13.00;99.90;;;;;;5053918;28;20083;-48
2022/09/20 02:32:41;;;;;;;5.40;3.30;;;13.00;99.90;;;;;;5054135;28;20108;-47
2022/09/20 02:35:14;;;;;;;5.70;2.97;;;13.00;99.90;;;;;;5053728;28;20031;-46
2022/09/20 02:37:52;;;;;;;5.07;3.05;;;13.00;99.90;;;;;;5053452;28;20021;-45
2022/09/20 02:40:18;;;;;;;7.03;3.65;;;13.00;99.90;;;;;;5053935;28;20100;-45
2022/09/20 02:42:56;;;;;;;5.13;3.22;;;13.00;99.90;;;;;;5053800;28;20028;-47
2022/09/20 02:45:36;;;;;;;6.15;3.50;;;12.90;99.90;;;;;;5053245;28;20511;-45
2022/09/20 02:48:05;;;;;;;6.07;3.47;;;12.90;99.90;;;;;;5053262;28;20132;-49
2022/09/20 02:50:41;;;;;;;6.03;3.65;;;12.80;99.90;;;;;;5053209;28;20423;-46
2022/09/20 02:53:52;;;;;;;6.30;3.47;;;12.80;99.90;;;;;;5050482;28;20071;-44
2022/09/20 02:56:36;;;;;;;6.22;3.80;;;12.70;99.90;;;;;;5029139;28;20506;-46
2022/09/20 02:59:23;;;;;;;7.55;4.32;;;12.60;99.90;;;;;;5053368;28;20025;-44
2022/09/20 03:02:17;;;;;;;7.55;4.20;;;12.50;99.90;;;;;;5053385;28;20167;-46
2022/09/20 03:05:02;;;;;;;5.40;3.70;;;12.50;99.90;;;;;;5053168;28;20032;-50
2022/09/20 03:08:00;;;;;;;5.22;3.38;;;12.40;99.90;;;;;;5053057;28;20067;-51
2022/09/20 03:10:28;;;;;;;8.02;4.00;;;12.30;99.90;;;;;;5053062;28;20033;-46
2022/09/20 03:13:25;;;;;;;6.97;3.83;;;12.30;99.90;;;;;;5053150;28;20024;-47
2022/09/20 03:15:56;;;;;;;14.25;4.25;;;12.20;99.90;;;;;;5052853;28;20484;-45
2022/09/20 03:18:34;;;;;;;7.55;4.18;;;12.20;99.90;;;;;;5053032;28;20043;-53
2022/09/20 03:21:51;;;;;;;6.47;3.95;;;12.10;99.90;;;;;;5053021;28;20032;-49
2022/09/20 03:24:33;;;;;;;8.40;4.07;;;12.10;99.90;;;;;;5027531;28;20114;-55
2022/09/20 03:27:02;;;;;;;6.60;3.55;;;12.00;99.90;;;;;;5051712;28;20073;-52
2022/09/20 03:30:00;;;;;;;6.90;4.00;;;12.00;99.90;;;;;;5052992;28;20029;-53
2022/09/20 03:32:57;;;;;;;6.80;4.13;;;12.00;99.90;;;;;;5052916;28;20040;-50
2022/09/20 03:35:50;;;;;;;6.05;3.47;;;11.90;99.90;;;;;;5052703;28;20047;-46
2022/09/20 03:38:29;;;;;;;6.63;4.13;;;11.80;99.90;;;;;;5051132;28;20025;-52
2022/09/20 03:41:24;;;;;;;6.53;3.80;;;11.80;99.90;;;;;;5052526;28;20440;-54
2022/09/20 03:44:03;;;;;;;5.50;3.83;;;11.80;99.90;;;;;;5052626;28;20028;-50
2022/09/20 03:46:40;;;;;;;7.68;4.57;;;11.70;99.90;;;;;;5040576;28;20107;-49
2022/09/20 03:49:15;;;;;;;6.85;4.15;;;11.70;99.90;;;;;;5052308;28;20507;-50
2022/09/20 03:52:06;;;;;;;6.50;3.92;;;11.70;99.90;;;;;;5052699;28;20024;-47
2022/09/20 03:54:38;;;;;;;10.40;4.43;;;11.70;99.90;;;;;;5052219;28;20027;-44
2022/09/20 03:57:16;;;;;;;6.53;4.07;;;11.60;99.90;;;;;;5052051;28;20052;-50
2022/09/20 04:00:10;;;;;;;6.35;4.20;;;11.60;99.90;;;;;;5052183;28;20145;-46
2022/09/20 04:03:14;;;;;;;7.07;4.07;;;11.60;99.90;;;;;;5052383;28;20028;-49
2022/09/20 04:06:11;;;;;;;7.93;5.22;;;11.50;99.90;;;;;;5040331;28;20040;-47
2022/09/20 04:08:50;;;;;;;7.55;4.50;;;11.50;99.90;;;;;;5039500;28;20040;-45
2022/09/20 04:11:18;;;;;;;8.18;4.82;;;11.50;99.90;;;;;;5051905;28;20033;-49
2022/09/20 04:14:08;;;;;;;7.05;4.30;;;11.50;99.90;;;;;;5051865;28;20020;-44
2022/09/20 04:16:45;;;;;;;8.88;4.60;;;11.50;99.90;;;;;;5051555;28;20036;-48
2022/09/20 04:19:33;;;;;;;7.40;4.53;;;11.40;99.90;;;;;;5038233;28;20055;-49
2022/09/20 04:22:00;;;;;;;7.57;4.80;;;11.40;99.90;;;;;;5051727;28;20105;-48
2022/09/20 04:24:29;;;;;;;8.68;4.47;;;11.40;99.90;;;;;;5051734;28;20281;-44
2022/09/20 04:27:08;;;;;;;7.13;4.50;;;11.40;99.90;;;;;;5051400;28;20021;-45
2022/09/20 04:29:45;;;;;;;6.50;4.30;;;11.30;99.90;;;;;;5051618;28;20040;-50
2022/09/20 04:32:45;;;;;;;6.57;4.50;;;11.30;99.90;;;;;;5046884;28;20021;-46
2022/09/20 04:38:20;;;;;;;6.57;3.83;;;11.30;99.90;;;;;;5046384;28;20044;-44
2022/09/20 04:41:15;;;;;;;5.80;3.95;;;11.30;99.90;;;;;;5051384;28;20035;-47
2022/09/20 04:43:59;;;;;;;8.02;4.13;;;11.30;99.90;;;;;;5051326;28;20063;-45
2022/09/20 04:46:31;;;;;;;6.38;4.32;;;11.20;99.90;;;;;;5050858;28;20048;-46
2022/09/20 04:49:21;;;;;;;6.10;4.15;;;11.10;99.90;;;;;;5051160;28;20048;-47
2022/09/20 04:52:09;;;;;;;7.72;5.05;;;11.10;99.90;;;;;;5051650;28;20025;-49
2022/09/20 04:55:01;;;;;;;6.30;4.20;;;11.00;99.90;;;;;;5049068;28;20031;-45
2022/09/20 04:57:45;;;;;;;5.85;3.72;;;11.00;99.90;;;;;;5050729;28;20368;-43
2022/09/20 05:00:19;;;;;;;8.05;4.43;;;11.00;99.90;;;;;;5051250;28;20112;-45
2022/09/20 05:03:28;;;;;;;6.53;4.25;;;10.90;99.90;;;;;;5046383;28;20017;-44
2022/09/20 05:06:21;;;;;;;7.63;4.07;;;10.80;99.90;;;;;;5050985;28;20039;-46
2022/09/20 05:09:14;;;;;;;8.20;4.15;;;10.80;99.90;;;;;;5044801;28;20036;-44
2022/09/20 05:12:08;;;;;;;8.82;4.18;;;10.80;99.90;;;;;;5049242;28;20044;-43
2022/09/20 05:14:50;;;;;;;9.23;3.88;;;10.80;99.90;;;;;;5023781;28;20037;-45
2022/09/20 05:17:39;;;;;;;8.05;4.65;;;10.80;99.90;;;;;;5050621;28;20024;-49
2022/09/20 05:20:36;;;;;;;7.68;3.75;;;10.70;99.90;;;;;;5042877;28;20048;-47
2022/09/20 05:23:16;;;;;;;24.35;6.35;;;10.70;99.90;;;;;;5050849;28;20029;-44
2022/09/20 05:26:02;;;;;;;8.75;4.47;;;10.80;99.90;;;;;;5050811;28;20021;-44
2022/09/20 05:28:55;;;;;;;6.90;3.60;;;10.70;99.90;;;;;;5050872;28;20029;-44
2022/09/20 05:31:33;;;;;;;7.43;3.80;;;10.70;99.90;;;;;;5051104;28;20021;-47
2022/09/20 05:34:07;;;;;;;6.72;3.80;;;10.70;99.90;;;;;;5050815;28;20103;-47
2022/09/20 05:36:55;;;;;;;7.32;4.00;;;10.70;99.90;;;;;;5050579;28;20025;-46
2022/09/20 05:39:35;;;;;;;8.88;4.30;;;10.60;99.90;;;;;;5050304;28;20021;-54
2022/09/20 05:42:23;;;;;;;7.95;4.00;;;10.70;99.90;;;;;;5050466;28;20395;-46
2022/09/20 05:44:58;;;;;;;6.72;4.38;;;10.70;99.90;;;;;;5050649;28;20021;-52
2022/09/20 05:47:50;;;;;;;7.53;4.40;;;10.70;99.90;;;;;;5050082;28;20561;-50
2022/09/20 05:50:53;;;;;;;7.50;4.45;;;10.70;99.90;;;;;;5053569;28;20033;-52
2022/09/20 05:53:37;;;;;;;8.18;4.65;;;10.70;99.90;;;;;;5054518;28;20096;-48
2022/09/20 05:56:26;;;;;;;6.32;3.95;;;10.80;99.90;;;;;;5054085;28;20021;-45
2022/09/20 05:59:25;;;;;;;8.65;5.03;;;10.80;99.90;;;;;;5054513;28;20039;-44
2022/09/20 06:02:13;;;;;;;7.65;5.03;;;10.90;99.90;;;;;;5054396;28;20033;-47
2022/09/20 06:04:51;;;;;;;9.05;5.10;;;10.90;99.90;;;;;;5054412;28;20101;-47
2022/09/20 06:07:44;;;;;;;7.68;4.93;;;10.90;99.90;;;;;;5054132;28;20391;-50
2022/09/20 06:10:46;;;;;;;10.07;4.80;;;10.90;99.90;;;;;;5026124;28;20053;-47
2022/09/20 06:13:28;;;;;;;8.45;5.03;;;11.00;99.90;;;;;;5054296;28;20029;-49
2022/09/20 06:16:04;;;;;;;8.82;5.50;;;11.10;99.90;;;;;;5054230;28;20037;-50
2022/09/20 06:18:56;;;;;;;10.32;5.50;;;11.20;99.90;;;;;;5053897;28;20029;-45
2022/09/20 06:21:40;;;;;;;6.75;4.65;;;11.20;99.90;;;;;;5053972;28;20104;-44
2022/09/20 06:24:31;;;;;;;8.13;4.82;;;11.30;99.90;;;;;;5053974;28;20074;-47
2022/09/20 06:27:01;;;;;;;8.60;5.38;;;11.30;99.90;;;;;;5053400;28;20025;-46
2022/09/20 06:29:39;;;;;;;9.57;5.25;;;11.30;99.90;;;;;;5053694;28;20043;-45
2022/09/20 06:32:05;;;;;;;10.25;4.93;;;11.30;99.90;;;;;;5053760;28;20063;-44
2022/09/20 06:34:31;;;;;;;9.85;5.10;;;11.40;99.90;;;;;;5053756;28;20032;-46
2022/09/20 06:43:13;;;;;;;7.28;3.75;;;11.50;99.90;;;;;;5037525;28;20518;-44
2022/09/20 06:45:40;;;;;;;6.82;4.03;;;11.40;99.90;;;;;;5051890;28;20029;-44
2022/09/20 06:48:07;;;;;;;7.25;4.40;;;11.40;99.90;;;;;;5053112;28;20124;-44
2022/09/20 06:50:35;;;;;;;7.88;5.00;;;11.50;99.90;;;;;;5052526;28;20048;-47
2022/09/20 06:53:01;;;;;;;5.82;4.07;;;11.50;99.90;;;;;;5044259;28;21149;-44
2022/09/20 06:55:31;;;;;;;7.68;4.75;;;11.60;99.90;;;;;;5052980;28;20040;-45
2022/09/20 06:57:56;;;;;;;;;;;11.70;99.90;;;;;;5053367;28;20438;-52
2022/09/20 07:00:23;;;;;;;7.55;4.85;;;11.70;99.90;;;;;;5051937;28;20007;-44
2022/09/20 07:02:49;;;;;;;8.70;5.25;;;11.80;99.90;;;;;;5049017;28;20099;-45
2022/09/20 07:05:20;;;;;;;8.30;5.07;;;11.90;99.90;;;;;;5051186;28;20055;-45
2022/09/20 07:07:46;;;;;;;6.68;4.40;;;11.90;99.90;;;;;;5040079;28;20534;-50
2022/09/20 07:10:13;;;;;;;6.47;4.00;;;12.00;99.90;;;;;;5045662;28;20037;-47
2022/09/20 07:12:40;;;;;;;7.55;4.13;;;12.10;99.90;;;;;;5048587;28;20040;-45
2022/09/20 07:15:06;;;;;;;6.55;4.07;;;12.20;99.90;;;;;;5048703;28;20040;-48
2022/09/20 07:17:32;;;;;;;6.97;4.68;;;12.30;99.90;;;;;;5046409;28;20098;-47
2022/09/20 07:19:58;;;;;;;6.57;4.05;;;12.50;99.90;;;;;;5044332;28;20479;-43
2022/09/20 07:22:25;;;;;;;6.68;3.88;;;12.60;99.90;;;;;;5047509;28;20078;-44
2022/09/20 07:24:51;;;;;;;5.88;3.75;;;12.80;99.90;;;;;;5047902;28;20041;-46
2022/09/20 07:27:17;;;;;;;6.03;3.28;;;13.00;99.90;;;;;;5049361;28;20017;-46
2022/09/20 07:29:44;;;;;;;7.82;3.22;;;13.50;99.90;;;;;;5046105;28;20090;-49
2022/09/20 07:32:10;;;;;;;8.65;3.25;;;14.10;99.90;;;;;;5048053;28;20062;-44
2022/09/20 07:34:36;;;;;;;5.75;3.28;;;14.60;99.90;;;;;;5051988;28;20029;-44
2022/09/20 07:37:02;;;;;;;6.38;3.25;;;14.80;99.90;;;;;;5051329;28;20075;-47
2022/09/20 07:39:28;;;;;;;7.35;3.17;;;14.90;99.90;;;;;;5050187;28;20399;-50
2022/09/20 07:41:54;;;;;;;5.25;2.90;;;15.10;99.90;;;;;;5050824;28;20499;-45
2022/09/20 07:44:20;;;;;;;6.15;3.33;;;15.30;99.90;;;;;;5056509;28;20051;-46
2022/09/20 07:46:51;;;;;;;7.78;3.83;;;15.80;99.90;;;;;;5052350;28;20197;-45
2022/09/20 07:49:17;;;;;;;5.72;3.15;;;16.70;99.90;;;;;;5052018;28;20109;-45
2022/09/20 07:51:43;;;;;;;7.97;3.70;;;17.90;99.90;;;;;;5052555;28;20104;-51
2022/09/20 07:54:09;;;;;;;9.38;5.78;;;18.80;99.90;;;;;;5051961;28;20104;-52
2022/09/20 07:56:35;;;;;;;10.32;6.43;;;19.80;99.90;;;;;;5049096;28;20420;-45
2022/09/20 07:59:00;;;;;;;8.80;5.32;;;20.60;99.90;;;;;;5047774;28;20377;-48
2022/09/20 08:01:26;;;;;;;10.02;6.13;;;21.40;99.90;;;;;;5046501;28;20032;-48
2022/09/20 08:03:52;;;;;;;10.02;5.68;;;21.90;99.90;;;;;;5049962;28;20036;-48
2022/09/20 08:06:20;;;;;;;10.15;5.60;;;22.40;98.90;;;;;;5051317;28;20025;-44
2022/09/20 08:08:46;;;;;;;7.15;4.50;;;22.70;96.20;;;;;;5051522;28;20029;-44
2022/09/20 08:11:18;;;;;;;5.47;3.28;;;23.20;96.20;;;;;;5051226;28;20090;-44
2022/09/20 08:13:49;;;;;;;4.93;2.85;;;23.90;94.40;;;;;;5038063;28;20009;-51
2022/09/20 08:16:15;;;;;;;4.50;2.35;;;24.60;92.50;;;;;;5049693;28;20162;-45
2022/09/20 08:18:45;;;;;;;5.13;2.53;;;25.30;91.40;;;;;;5045338;28;20501;-49
2022/09/20 08:21:12;;;;;;;3.75;2.00;;;25.50;86.80;;;;;;5047606;28;20025;-44
2022/09/20 08:23:43;;;;;;;3.40;2.00;;;26.20;86.20;;;;;;5050559;28;20070;-46
2022/09/20 08:26:11;;;;;;;3.90;1.90;;;26.70;83.50;;;;;;5050613;28;20400;-50
2022/09/20 08:28:38;;;;;;;4.90;1.90;;;27.30;81.20;;;;;;5043817;28;20033;-47
2022/09/20 08:31:06;;;;;;;2.95;1.45;;;27.90;78.80;;;;;;5050526;28;20044;-44
2022/09/20 08:33:32;;;;;;;4.43;1.63;;;28.00;74.10;;;;;;5050696;28;20021;-44
2022/09/20 08:35:58;;;;;;;4.53;1.50;;;27.60;72.60;;;;;;5043919;28;20033;-43
2022/09/20 08:38:26;;;;;;;2.88;1.48;;;27.70;74.00;;;;;;5043811;28;20060;-42
2022/09/20 08:41:09;;;;;;;2.87;1.60;;;28.00;74.00;;;;;;5049380;28;20090;-43
2022/09/20 08:43:39;;;;;;;3.70;1.40;;;27.70;72.00;;;;;;5049336;28;20461;-41
2022/09/20 08:46:12;;;;;;;3.88;1.50;;;27.90;74.90;;;;;;5048692;28;20073;-43
2022/09/20 08:48:38;;;;;;;3.92;1.50;;;28.30;72.10;;;;;;5049741;28;20083;-46
2022/09/20 08:51:05;;;;;;;4.35;1.75;;;28.40;69.10;;;;;;5048635;28;20057;-45
2022/09/20 08:53:33;;;;;;;3.58;1.63;;;27.90;68.70;;;;;;5050757;28;20033;-48
2022/09/20 08:55:58;;;;;;;3.65;1.65;;;27.80;68.50;;;;;;5050386;28;20108;-43
2022/09/20 08:58:27;;;;;;;5.13;1.83;;;27.50;68.30;;;;;;5046529;28;20142;-41
2022/09/20 09:00:55;;;;;;;;;;;27.20;67.70;;;;;;5047429;28;20640;-47
2022/09/20 09:03:21;;;;;;;4.47;1.90;;;27.30;72.70;;;;;;5049575;28;19905;-43
2022/09/20 09:05:51;;;;;;;3.85;2.10;;;26.50;65.80;;;;;;5053022;28;20098;-43
2022/09/20 09:08:25;;;;;;;4.55;2.58;;;26.30;68.70;;;;;;5050760;28;20065;-47
2022/09/20 09:10:53;;;;;;;4.03;2.30;;;26.30;67.80;;;;;;5045224;28;20132;-49
2022/09/20 09:14:00;;;;;;;4.63;2.20;;;25.90;66.60;;;;;;5053621;28;20498;-45
2022/09/20 09:16:28;;;;;;;3.58;2.28;;;26.90;67.80;;;;;;5021838;28;20033;-52
2022/09/20 09:18:54;;;;;;;4.57;2.58;;;27.40;66.60;;;;;;5052649;28;20104;-48
2022/09/20 09:21:24;;;;;;;3.83;2.15;;;28.10;67.70;;;;;;5050451;28;20033;-44
2022/09/20 09:24:08;;;;;;;5.40;2.38;;;28.70;67.00;;;;;;5048328;28;20380;-47
2022/09/20 09:26:39;;;;;;;5.50;2.53;;;29.40;62.90;;;;;;5045266;28;20566;-53
2022/09/20 09:29:14;;;;;;;4.25;2.22;;;29.80;63.30;;;;;;5048708;28;20411;-51
2022/09/20 09:31:39;;;;;;;4.28;2.70;;;29.60;61.40;;;;;;5048935;28;20056;-45
2022/09/20 09:34:27;;;;;;;4.60;2.58;;;29.40;62.10;;;;;;5050419;28;20419;-46
2022/09/20 09:36:54;;;;;;;4.30;2.80;;;30.00;61.40;;;;;;5049873;28;20557;-49
2022/09/20 09:39:37;;;;;;;5.20;2.40;;;30.50;60.20;;;;;;5050631;28;20071;-48
2022/09/20 09:42:32;;;;;;;5.18;2.50;;;31.10;60.30;;;;;;5049110;28;20032;-47
2022/09/20 09:45:28;;;;;;;3.95;2.17;;;31.30;58.00;;;;;;5029935;28;20082;-48
2022/09/20 09:47:55;;;;;;;5.13;2.15;;;31.40;56.70;;;;;;5048236;28;20048;-48
2022/09/20 09:50:26;;;;;;;3.95;2.30;;;31.10;56.20;;;;;;5047692;28;20033;-47
2022/09/20 09:52:58;;;;;;;3.22;2.20;;;30.60;55.80;;;;;;5046070;28;20035;-48
2022/09/20 09:55:31;;;;;;;2.88;1.77;;;29.80;57.10;;;;;;5048001;28;20033;-48
2022/09/20 09:58:30;;;;;;;3.75;1.70;;;29.00;56.10;;;;;;5043316;28;20089;-48
2022/09/20 10:01:00;;;;;;;2.70;1.67;;;29.00;57.80;;;;;;5025097;28;20400;-47
2022/09/20 10:03:42;;;;;;;2.78;1.98;;;29.10;59.90;;;;;;5049236;28;20033;-49
2022/09/20 10:06:23;;;;;;;3.65;2.28;;;29.40;59.20;;;;;;5053296;28;20017;-47
2022/09/20 10:09:04;;;;;;;2.10;1.30;;;29.70;57.60;;;;;;5050786;28;20037;-49
2022/09/20 10:11:42;;;;;;;2.83;1.55;;;29.90;56.80;;;;;;5054034;28;20036;-50
2022/09/20 10:14:09;;;;;;;3.35;1.88;;;30.60;58.40;;;;;;5040452;28;20033;-49
2022/09/20 10:16:40;;;;;;;3.13;1.40;;;30.90;56.20;;;;;;5052131;28;20083;-49
2022/09/20 10:19:15;;;;;;;3.20;1.85;;;31.10;53.50;;;;;;5052404;28;20404;-47
2022/09/20 10:21:50;;;;;;;2.92;1.33;;;31.00;50.60;;;;;;5051593;28;20036;-45
2022/09/20 10:25:03;;;;;;;1.60;1.20;;;31.30;54.90;;;;;;5050900;28;20021;-45
2022/09/20 10:27:47;;;;;;;3.72;1.38;;;31.30;54.50;;;;;;5049675;28;20090;-45
2022/09/20 10:30:18;;;;;;;3.45;1.63;;;31.10;51.80;;;;;;5048637;28;20454;-44
2022/09/20 10:32:50;;;;;;;2.30;1.20;;;30.40;51.80;;;;;;5047306;28;20428;-46
2022/09/20 10:35:24;;;;;;;2.30;1.17;;;29.40;52.70;;;;;;5043908;28;20036;-45
2022/09/20 10:38:18;;;;;;;3.47;1.50;;;29.10;55.10;;;;;;5050478;28;20035;-47
2022/09/20 10:44:02;;;;;;;3.80;1.50;;;29.10;57.00;;;;;;5045375;28;20047;-47
2022/09/20 10:46:55;;;;;;;2.90;1.53;;;28.50;57.00;;;;;;5053735;28;20032;-49
2022/09/20 10:49:45;;;;;;;2.63;1.40;;;28.20;57.80;;;;;;5052142;28;20033;-48
2022/09/20 10:52:41;;;;;;;2.45;1.40;;;28.60;57.00;;;;;;5052445;28;20033;-51
2022/09/20 10:55:23;;;;;;;2.20;1.35;;;28.40;57.30;;;;;;5051652;28;20037;-49
2022/09/20 10:58:00;;;;;;;3.55;1.48;;;28.80;56.20;;;;;;5042549;28;20017;-49
2022/09/20 11:00:34;;;;;;;2.70;1.40;;;29.00;56.50;;;;;;5051987;28;20025;-47
2022/09/20 11:03:14;;;;;;;2.40;1.40;;;28.70;53.80;;;;;;5053131;28;20103;-55
2022/09/20 11:06:10;;;;;;;3.22;1.58;;;28.80;56.50;;;;;;5053167;28;20098;-48
2022/09/20 11:08:38;;;;;;;2.47;1.55;;;28.80;56.90;;;;;;5052956;28;20021;-45
2022/09/20 11:11:08;;;;;;;5.33;1.60;;;28.10;54.30;;;;;;5051103;28;20111;-50
2022/09/20 11:14:03;;;;;;;1.95;1.50;;;27.40;56.70;;;;;;5050707;28;20025;-45
2022/09/20 11:16:44;;;;;;;3.70;2.08;;;26.70;59.30;;;;;;5051029;28;20029;-45
2022/09/20 11:19:31;;;;;;;3.17;1.48;;;26.30;58.10;;;;;;5051253;28;20036;-46
2022/09/20 11:22:04;;;;;;;3.17;1.60;;;26.10;59.40;;;;;;5051011;28;20096;-43
2022/09/20 11:24:49;;;;;;;3.33;1.50;;;25.90;63.20;;;;;;5051754;28;20057;-43
2022/09/20 11:27:30;;;;;;;2.60;1.60;;;25.80;61.40;;;;;;5048227;28;20048;-45
2022/09/20 11:30:20;;;;;;;2.33;1.42;;;25.30;64.30;;;;;;5052229;28;20400;-52
2022/09/20 11:33:37;;;;;;;2.33;1.30;;;26.00;63.30;;;;;;5052039;28;20017;-43
2022/09/20 11:36:09;;;;;;;1.95;1.25;;;26.00;61.60;;;;;;4990831;28;20042;-49
2022/09/20 11:39:09;;;;;;;1.95;1.10;;;26.10;59.60;;;;;;5041656;28;20044;-45
2022/09/20 11:41:35;;;;;;;4.82;1.15;;;26.10;60.20;;;;;;5050844;28;20164;-52
2022/09/20 11:44:06;;;;;;;2.05;1.05;;;26.00;59.30;;;;;;5051621;28;20104;-47
2022/09/20 11:46:56;;;;;;;2.13;1.08;;;25.80;59.90;;;;;;5048533;28;20488;-46
2022/09/20 11:49:59;;;;;;;4.45;1.38;;;25.70;61.20;;;;;;5051106;28;20129;-42
2022/09/20 11:53:07;;;;;;;3.70;0.80;;;25.20;61.60;;;;;;5051214;28;20024;-46
2022/09/20 11:55:41;;;;;;;2.15;0.90;;;25.10;64.30;;;;;;5051002;28;20036;-47
2022/09/20 11:58:19;;;;;;;1.52;0.90;;;24.80;62.90;;;;;;5052117;28;20546;-45
2022/09/20 12:00:49;;;;;;;2.22;0.93;;;24.90;63.60;;;;;;5052110;28;20025;-44
2022/09/20 12:03:40;;;;;;;2.78;0.90;;;25.70;62.90;;;;;;5050726;28;20108;-44
2022/09/20 12:06:23;;;;;;;3.28;1.05;;;26.50;58.10;;;;;;5044887;28;20033;-47
2022/09/20 12:08:50;;;;;;;1.08;0.80;;;25.80;59.20;;;;;;5040620;28;20524;-50
2022/09/20 12:11:25;;;;;;;2.38;1.02;;;25.30;58.00;;;;;;5051613;28;20029;-46
2022/09/20 12:14:24;;;;;;;2.15;0.90;;;24.50;61.70;;;;;;5051730;28;20033;-45
2022/09/20 12:16:50;;;;;;;2.65;1.10;;;25.00;64.30;;;;;;5047854;28;20033;-46
2022/09/20 12:19:31;;;;;;;2.13;1.10;;;25.40;60.10;;;;;;5051549;28;20117;-51
2022/09/20 12:21:57;;;;;;;5.22;0.95;;;25.80;58.00;;;;;;5050961;28;20033;-46
2022/09/20 12:24:27;;;;;;;1.23;0.93;;;26.20;58.00;;;;;;5051347;28;20391;-48
2022/09/20 12:27:01;;;;;;;4.97;0.98;;;25.10;56.90;;;;;;5049418;28;20478;-51
2022/09/20 12:29:28;;;;;;;2.38;0.88;;;24.60;65.80;;;;;;5051460;28;20480;-46
2022/09/20 12:31:56;;;;;;;1.38;0.80;;;24.10;64.20;;;;;;5051357;28;20032;-46
2022/09/20 12:34:24;;;;;;;1.75;1.00;;;23.60;64.30;;;;;;5051204;28;20082;-48
2022/09/20 12:36:53;;;;;;;1.92;0.93;;;23.20;66.80;;;;;;5051221;28;20551;-45
2022/09/20 12:39:23;;;;;;;4.63;0.98;;;22.50;65.00;;;;;;5051029;28;20047;-48
2022/09/20 12:42:01;;;;;;;2.17;0.90;;;22.70;68.80;;;;;;5051451;28;20033;-49
2022/09/20 12:44:45;;;;;;;1.45;0.82;;;22.30;64.90;;;;;;5049880;28;20029;-46
2022/09/20 12:47:11;;;;;;;1.38;0.80;;;22.10;66.00;;;;;;5051340;28;20107;-49
2022/09/20 12:52:49;;;;;;;1.98;0.80;;;21.20;66.60;;;;;;5050674;28;20090;-51
2022/09/20 12:55:42;;;;;;;1.80;1.20;;;21.20;70.40;;;;;;5049613;28;20502;-49
2022/09/20 12:58:13;;;;;;;4.07;1.73;;;21.30;73.10;;;;;;5049984;28;20025;-44
2022/09/20 13:00:50;;;;;;;2.10;0.90;;;21.40;72.00;;;;;;5050963;28;20036;-49
2022/09/20 13:03:47;;;;;;;1.10;0.70;;;21.40;72.10;;;;;;5049788;28;20032;-44
2022/09/20 13:06:18;;;;;;;2.17;0.90;;;21.30;71.40;;;;;;5038651;28;20041;-45
2022/09/20 13:08:56;;;;;;;1.65;1.00;;;21.50;71.90;;;;;;5050618;28;20024;-49
2022/09/20 13:11:33;;;;;;;3.25;0.90;;;21.60;73.40;;;;;;5050553;28;20048;-52
2022/09/20 13:14:08;;;;;;;1.15;0.80;;;21.40;69.10;;;;;;5051176;28;20053;-43
2022/09/20 13:16:36;;;;;;;2.03;0.93;;;21.50;71.20;;;;;;5051004;28;20109;-45
2022/09/20 13:19:03;;;;;;;3.63;1.20;;;21.50;70.50;;;;;;5050677;28;20025;-46
2022/09/20 13:21:31;;;;;;;6.70;2.15;;;21.40;70.30;;;;;;5050636;28;20029;-46
2022/09/20 13:23:58;;;;;;;1.73;0.90;;;21.50;71.40;;;;;;5050533;28;20475;-44
2022/09/20 13:26:32;;;;;;;1.13;0.80;;;21.60;69.90;;;;;;5050743;28;20032;-47
2022/09/20 13:28:59;;;;;;;1.63;0.80;;;21.90;70.80;;;;;;5050559;28;20476;-52
2022/09/20 13:31:28;;;;;;;3.20;0.80;;;21.90;69.50;;;;;;5050439;28;20163;-46
2022/09/20 13:33:54;;;;;;;1.80;0.77;;;22.20;71.00;;;;;;5050529;28;20391;-45
2022/09/20 13:36:28;;;;;;;2.58;0.80;;;22.30;70.70;;;;;;5050487;28;20025;-48
2022/09/20 13:38:56;;;;;;;1.20;0.70;;;22.30;70.30;;;;;;5050636;28;20029;-45
2022/09/20 13:41:23;;;;;;;1.25;0.73;;;22.50;71.40;;;;;;5050588;28;20017;-46
2022/09/20 13:43:49;;;;;;;1.20;0.80;;;22.60;70.40;;;;;;5050680;28;20043;-50
2022/09/20 13:46:21;;;;;;;1.20;0.73;;;22.40;66.20;;;;;;5049411;28;20059;-51
2022/09/20 13:48:51;;;;;;;1.80;0.80;;;22.60;70.60;;;;;;5049869;28;20025;-49
2022/09/20 13:51:25;;;;;;;0.80;0.70;;;22.80;70.00;;;;;;5050244;28;20021;-49
2022/09/20 13:53:51;;;;;;;1.15;0.63;;;22.90;68.20;;;;;;5050222;28;20029;-44
2022/09/20 13:56:21;;;;;;;1.42;0.90;;;23.00;68.80;;;;;;5049117;28;20029;-49